createdAt,value
2023-02-19T00:00:32.931Z,74.79
2023-02-19T00:01:32.923Z,74.68
2023-02-19T00:02:32.932Z,74.51
2023-02-19T00:03:32.970Z,74.50
2023-02-19T00:04:32.918Z,74.45
2023-02-19T00:05:32.895Z,74.47
2023-02-19T00:06:32.872Z,74.46
2023-02-19T00:07:32.862Z,74.43
2023-02-19T00:08:32.862Z,74.45
2023-02-19T00:09:32.862Z,74.57
2023-02-19T00:10:32.821Z,74.52
2023-02-19T00:11:32.826Z,74.41
2023-02-19T00:12:32.828Z,74.36
2023-02-19T00:13:32.796Z,74.34
2023-02-19T00:14:32.782Z,74.38
2023-02-19T00:15:32.886Z,74.47
2023-02-19T00:16:32.785Z,74.44
2023-02-19T00:17:32.743Z,74.57
2023-02-19T00:18:32.741Z,74.57
2023-02-19T00:19:32.747Z,74.58
2023-02-19T00:20:32.716Z,74.63
2023-02-19T00:21:32.709Z,74.51
2023-02-19T00:22:32.754Z,74.48
2023-02-19T00:23:32.705Z,74.51
2023-02-19T00:24:32.679Z,74.51
2023-02-19T00:25:32.686Z,74.58
2023-02-19T00:26:32.657Z,74.63
2023-02-19T00:27:32.680Z,74.76
2023-02-19T00:28:32.642Z,74.72
2023-02-19T00:29:32.625Z,74.64
2023-02-19T00:30:32.656Z,74.72
2023-02-19T00:31:33.428Z,74.69
2023-02-19T00:32:32.619Z,74.63
2023-02-19T00:33:32.634Z,74.52
2023-02-19T00:34:32.581Z,74.55
2023-02-19T00:35:32.573Z,74.58
2023-02-19T00:36:32.578Z,74.41
2023-02-19T00:37:32.589Z,74.43
2023-02-19T00:38:32.543Z,74.56
2023-02-19T00:39:32.547Z,74.68
2023-02-19T00:40:32.519Z,74.57
2023-02-19T00:41:32.524Z,74.41
2023-02-19T00:42:32.524Z,74.41
2023-02-19T00:43:32.492Z,74.39
2023-02-19T00:44:32.525Z,74.42
2023-02-19T00:45:32.474Z,74.42
2023-02-19T00:46:32.507Z,74.38
2023-02-19T00:47:32.471Z,74.38
2023-02-19T00:48:32.535Z,74.41
2023-02-19T00:49:32.447Z,74.52
2023-02-19T00:50:32.422Z,74.44
2023-02-19T00:51:32.418Z,74.42
2023-02-19T00:52:32.418Z,74.49
2023-02-19T00:53:32.400Z,74.46
2023-02-19T00:54:32.405Z,74.32
2023-02-19T00:55:32.379Z,74.28
2023-02-19T00:56:32.365Z,74.36
2023-02-19T00:57:32.393Z,74.50
2023-02-19T00:58:32.357Z,74.54
2023-02-19T00:59:32.360Z,74.62
2023-02-19T01:00:32.322Z,74.69
2023-02-19T01:01:32.357Z,74.66
2023-02-19T01:02:32.317Z,74.68
2023-02-19T01:03:32.291Z,74.79
2023-02-19T01:04:32.372Z,74.73
2023-02-19T01:05:32.274Z,74.77
2023-02-19T01:06:32.272Z,74.86
2023-02-19T01:07:32.276Z,74.84
2023-02-19T01:08:32.269Z,74.92
2023-02-19T01:09:32.257Z,75.01
2023-02-19T01:10:32.230Z,75.04
2023-02-19T01:11:32.226Z,74.88
2023-02-19T01:12:32.194Z,74.80
2023-02-19T01:13:32.202Z,74.89
2023-02-19T01:14:32.174Z,74.86
2023-02-19T01:15:32.172Z,74.95
2023-02-19T01:16:32.178Z,74.91
2023-02-19T01:17:32.187Z,74.89
2023-02-19T01:18:32.197Z,74.99
2023-02-19T01:19:32.126Z,75.04
2023-02-19T01:20:32.124Z,75.08
2023-02-19T01:21:32.106Z,75.08
2023-02-19T01:22:32.093Z,74.98
2023-02-19T01:23:32.089Z,75.02
2023-02-19T01:24:32.104Z,75.10
2023-02-19T01:25:32.062Z,75.18
2023-02-19T01:26:32.053Z,75.30
2023-02-19T01:27:32.047Z,75.46
2023-02-19T01:28:32.040Z,75.58
2023-02-19T01:29:32.044Z,75.57
2023-02-19T01:30:32.129Z,75.56
2023-02-19T01:31:32.086Z,75.53
2023-02-19T01:32:32.005Z,75.53
2023-02-19T01:33:31.978Z,75.49
2023-02-19T01:34:31.998Z,75.56
2023-02-19T01:35:31.967Z,75.61
2023-02-19T01:36:31.956Z,75.57
2023-02-19T01:37:31.939Z,75.60
2023-02-19T01:38:31.959Z,75.67
2023-02-19T01:39:31.953Z,75.74
2023-02-19T01:40:31.924Z,75.75
2023-02-19T01:41:31.917Z,75.80
2023-02-19T01:42:31.918Z,75.72
2023-02-19T01:43:31.882Z,75.81
2023-02-19T01:44:31.894Z,75.92
2023-02-19T01:45:31.891Z,75.93
2023-02-19T01:46:31.916Z,75.95
2023-02-19T01:47:31.852Z,75.95
2023-02-19T01:48:31.851Z,76.07
2023-02-19T01:49:31.839Z,76.15
2023-02-19T01:50:31.852Z,76.12
2023-02-19T01:51:31.841Z,76.08
2023-02-19T01:52:31.827Z,76.14
2023-02-19T01:53:31.793Z,76.16
2023-02-19T01:54:31.805Z,76.21
2023-02-19T01:55:31.759Z,76.15
2023-02-19T01:56:31.762Z,76.11
2023-02-19T01:57:31.744Z,76.23
2023-02-19T01:58:31.758Z,76.28
2023-02-19T01:59:31.730Z,76.40
2023-02-19T02:02:26.985Z,76.48
2023-02-19T02:03:28.355Z,76.83
2023-02-19T02:04:27.953Z,76.81
2023-02-19T02:05:27.916Z,76.83
2023-02-19T02:06:27.927Z,76.84
2023-02-19T02:07:27.898Z,76.83
2023-02-19T02:08:27.876Z,76.85
2023-02-19T02:09:27.916Z,76.93
2023-02-19T02:10:27.952Z,76.95
2023-02-19T02:11:27.926Z,77.02
2023-02-19T02:12:27.887Z,77.01
2023-02-19T02:13:27.846Z,77.22
2023-02-19T02:14:27.846Z,77.28
2023-02-19T02:15:27.855Z,77.35
2023-02-19T02:16:27.841Z,77.41
2023-02-19T02:17:27.822Z,77.35
2023-02-19T02:18:27.801Z,77.48
2023-02-19T02:19:27.826Z,77.44
2023-02-19T02:20:27.766Z,77.38
2023-02-19T02:21:27.774Z,77.37
2023-02-19T02:22:27.796Z,77.54
2023-02-19T02:23:27.751Z,77.67
2023-02-19T02:24:27.811Z,77.68
2023-02-19T02:25:27.723Z,77.86
2023-02-19T02:26:27.750Z,77.99
2023-02-19T02:27:27.707Z,78.11
2023-02-19T02:28:27.744Z,78.26
2023-02-19T02:29:27.732Z,78.47
2023-02-19T02:30:27.740Z,78.58
2023-02-19T02:31:27.757Z,78.51
2023-02-19T02:32:34.152Z,78.47
2023-02-19T02:33:27.637Z,78.49
2023-02-19T02:34:27.626Z,78.51
2023-02-19T02:35:27.626Z,78.58
2023-02-19T02:36:27.642Z,78.45
2023-02-19T02:37:27.628Z,78.42
2023-02-19T02:38:27.663Z,78.09
2023-02-19T02:39:27.641Z,78.14
2023-02-19T02:40:27.619Z,78.20
2023-02-19T02:41:27.770Z,78.32
2023-02-19T02:42:27.559Z,78.41
2023-02-19T02:43:27.617Z,78.43
2023-02-19T02:44:27.574Z,78.52
2023-02-19T02:45:27.538Z,78.60
2023-02-19T02:46:27.605Z,78.62
2023-02-19T02:47:27.512Z,78.59
2023-02-19T02:48:27.490Z,78.66
2023-02-19T02:49:27.524Z,78.65
2023-02-19T02:50:27.565Z,78.60
2023-02-19T02:51:27.477Z,78.59
2023-02-19T02:52:27.523Z,78.58
2023-02-19T02:53:27.433Z,78.56
2023-02-19T02:54:27.429Z,78.35
2023-02-19T02:55:27.458Z,78.37
2023-02-19T02:56:27.421Z,78.49
2023-02-19T02:57:27.398Z,78.56
2023-02-19T02:58:27.389Z,78.57
2023-02-19T02:59:27.390Z,78.63
2023-02-19T03:00:27.373Z,78.65
2023-02-19T03:01:27.454Z,78.64
2023-02-19T03:02:27.386Z,78.67
2023-02-19T03:03:27.339Z,78.69
2023-02-19T03:04:27.419Z,78.71
2023-02-19T03:05:27.356Z,78.72
2023-02-19T03:06:27.306Z,78.68
2023-02-19T03:07:27.337Z,78.60
2023-02-19T03:08:27.297Z,78.69
2023-02-19T03:09:27.282Z,78.65
2023-02-19T03:10:27.257Z,78.60
2023-02-19T03:11:27.281Z,78.56
2023-02-19T03:12:27.287Z,78.57
2023-02-19T03:13:27.224Z,78.67
2023-02-19T03:14:27.260Z,78.63
2023-02-19T03:15:27.245Z,78.81
2023-02-19T03:16:27.210Z,78.90
2023-02-19T03:17:27.194Z,78.93
2023-02-19T03:18:27.194Z,79.02
2023-02-19T03:19:27.195Z,79.04
2023-02-19T03:20:27.169Z,79.02
2023-02-19T03:21:27.344Z,79.02
2023-02-19T03:22:27.135Z,79.10
2023-02-19T03:23:27.133Z,79.04
2023-02-19T03:24:27.133Z,79.03
2023-02-19T03:25:27.127Z,79.08
2023-02-19T03:26:27.157Z,79.06
2023-02-19T03:27:27.112Z,79.09
2023-02-19T03:28:27.100Z,79.07
2023-02-19T03:29:27.128Z,79.02
2023-02-19T03:30:27.119Z,78.97
2023-02-19T03:31:27.274Z,78.96
2023-02-19T03:32:27.098Z,78.93
2023-02-19T03:33:27.048Z,78.95
2023-02-19T03:34:27.065Z,79.03
2023-02-19T03:35:27.030Z,79.09
2023-02-19T03:36:27.010Z,79.06
2023-02-19T03:37:27.014Z,79.04
2023-02-19T03:38:27.161Z,79.04
2023-02-19T03:39:26.984Z,79.04
2023-02-19T03:40:26.959Z,78.99
2023-02-19T03:41:26.985Z,78.99
2023-02-19T03:42:26.951Z,78.90
2023-02-19T03:43:26.966Z,78.89
2023-02-19T03:44:26.970Z,78.86
2023-02-19T03:45:26.931Z,78.83
2023-02-19T03:46:26.959Z,78.65
2023-02-19T03:47:26.930Z,78.57
2023-02-19T03:48:26.886Z,78.59
2023-02-19T03:49:26.991Z,78.48
2023-02-19T03:50:26.854Z,78.48
2023-02-19T03:51:26.898Z,78.48
2023-02-19T03:52:26.857Z,78.46
2023-02-19T03:53:26.869Z,78.48
2023-02-19T03:54:26.877Z,78.44
2023-02-19T03:55:26.827Z,78.48
2023-02-19T03:56:26.796Z,78.56
2023-02-19T03:57:26.817Z,78.54
2023-02-19T03:58:26.793Z,78.60
2023-02-19T03:59:26.799Z,78.61
2023-02-19T04:00:26.776Z,78.56
2023-02-19T04:01:26.786Z,78.50
2023-02-19T04:02:26.834Z,78.47
2023-02-19T04:03:26.741Z,78.39
2023-02-19T04:04:26.827Z,78.42
2023-02-19T04:05:26.760Z,78.33
2023-02-19T04:06:26.707Z,78.25
2023-02-19T04:07:26.733Z,78.25
2023-02-19T04:08:26.682Z,78.17
2023-02-19T04:09:26.704Z,78.19
2023-02-19T04:10:26.670Z,78.20
2023-02-19T04:11:26.695Z,78.29
2023-02-19T04:12:26.670Z,78.32
2023-02-19T04:13:26.645Z,78.31
2023-02-19T04:14:26.626Z,78.23
2023-02-19T04:15:26.694Z,78.23
2023-02-19T04:16:26.634Z,78.08
2023-02-19T04:17:26.629Z,78.05
2023-02-19T04:18:26.627Z,78.09
2023-02-19T04:19:26.615Z,78.07
2023-02-19T04:20:26.564Z,77.96
2023-02-19T04:21:26.605Z,77.95
2023-02-19T04:22:26.578Z,77.96
2023-02-19T04:23:26.568Z,78.00
2023-02-19T04:24:26.585Z,78.05
2023-02-19T04:25:26.553Z,78.14
2023-02-19T04:26:26.511Z,78.27
2023-02-19T04:27:26.620Z,78.35
2023-02-19T04:28:26.510Z,78.40
2023-02-19T04:29:26.491Z,78.46
2023-02-19T04:30:26.507Z,78.46
2023-02-19T04:31:26.760Z,78.47
2023-02-19T04:32:26.499Z,78.53
2023-02-19T04:33:26.529Z,78.43
2023-02-19T04:34:26.437Z,78.38
2023-02-19T04:35:26.511Z,78.36
2023-02-19T04:36:26.457Z,78.40
2023-02-19T04:37:26.429Z,78.45
2023-02-19T04:38:26.404Z,78.50
2023-02-19T04:39:26.386Z,78.37
2023-02-19T04:40:26.453Z,78.22
2023-02-19T04:41:26.368Z,78.01
2023-02-19T04:42:26.481Z,77.92
2023-02-19T04:43:26.351Z,77.80
2023-02-19T04:44:26.356Z,77.72
2023-02-19T04:45:26.329Z,77.61
2023-02-19T04:46:26.335Z,77.52
2023-02-19T04:47:26.303Z,77.53
2023-02-19T04:48:26.355Z,77.35
2023-02-19T04:49:26.338Z,77.30
2023-02-19T04:50:26.338Z,77.34
2023-02-19T04:51:26.268Z,77.40
2023-02-19T04:52:26.297Z,77.51
2023-02-19T04:53:26.265Z,77.46
2023-02-19T04:54:26.248Z,77.39
2023-02-19T04:55:26.237Z,77.42
2023-02-19T04:56:26.239Z,77.30
2023-02-19T04:57:26.223Z,77.09
2023-02-19T04:58:26.310Z,77.00
2023-02-19T04:59:26.195Z,76.93
2023-02-19T05:00:26.211Z,76.96
2023-02-19T05:01:26.177Z,77.01
2023-02-19T05:02:26.172Z,77.06
2023-02-19T05:03:26.166Z,77.11
2023-02-19T05:04:26.200Z,77.24
2023-02-19T05:05:26.121Z,77.34
2023-02-19T05:06:26.103Z,77.35
2023-02-19T05:07:26.150Z,77.31
2023-02-19T05:08:26.126Z,77.34
2023-02-19T05:09:26.082Z,77.42
2023-02-19T05:10:26.076Z,77.54
2023-02-19T05:11:26.071Z,77.72
2023-02-19T05:12:26.173Z,77.74
2023-02-19T05:13:26.096Z,77.76
2023-02-19T05:14:26.071Z,77.88
2023-02-19T05:15:26.031Z,77.97
2023-02-19T05:16:26.189Z,78.05
2023-02-19T05:17:26.043Z,78.16
2023-02-19T05:18:26.102Z,78.24
2023-02-19T05:19:25.990Z,78.30
2023-02-19T05:20:25.983Z,78.42
2023-02-19T05:21:25.980Z,78.58
2023-02-19T05:22:25.988Z,78.75
2023-02-19T05:23:25.968Z,78.87
2023-02-19T05:24:25.942Z,78.95
2023-02-19T05:25:25.941Z,79.08
2023-02-19T05:26:25.946Z,79.32
2023-02-19T05:27:25.933Z,79.73
2023-02-19T05:28:25.893Z,80.16
2023-02-19T05:29:25.901Z,80.50
2023-02-19T05:30:25.961Z,80.78
2023-02-19T05:31:25.958Z,81.02
2023-02-19T05:32:25.869Z,81.11
2023-02-19T05:33:25.900Z,81.23
2023-02-19T05:34:25.883Z,81.29
2023-02-19T05:35:25.921Z,81.44
2023-02-19T05:36:25.828Z,81.56
2023-02-19T05:37:25.819Z,81.76
2023-02-19T05:38:25.809Z,81.86
2023-02-19T05:39:25.831Z,81.98
2023-02-19T05:40:25.844Z,82.08
2023-02-19T05:41:25.782Z,82.20
2023-02-19T05:42:25.764Z,82.34
2023-02-19T05:43:25.748Z,82.38
2023-02-19T05:44:25.763Z,82.53
2023-02-19T05:45:25.724Z,82.61
2023-02-19T05:46:25.868Z,82.69
2023-02-19T05:47:25.774Z,82.73
2023-02-19T05:48:25.702Z,82.80
2023-02-19T05:49:25.690Z,82.85
2023-02-19T05:50:25.684Z,82.83
2023-02-19T05:51:25.794Z,82.88
2023-02-19T05:52:25.615Z,82.89
2023-02-19T05:53:25.673Z,82.92
2023-02-19T05:54:25.633Z,82.90
2023-02-19T05:55:25.610Z,83.01
2023-02-19T05:56:25.659Z,83.18
2023-02-19T05:57:25.577Z,83.33
2023-02-19T05:58:25.586Z,83.50
2023-02-19T05:59:25.638Z,83.81
2023-02-19T06:00:25.546Z,84.09
2023-02-19T06:01:25.524Z,84.18
2023-02-19T06:02:25.561Z,84.28
2023-02-19T06:03:25.566Z,84.32
2023-02-19T06:04:25.486Z,84.54
2023-02-19T06:05:25.480Z,84.77
2023-02-19T06:06:25.511Z,85.00
2023-02-19T06:07:25.479Z,85.22
2023-02-19T06:08:25.517Z,85.55
2023-02-19T06:09:25.631Z,85.86
2023-02-19T06:10:25.473Z,86.15
2023-02-19T06:11:25.455Z,86.35
2023-02-19T06:12:25.433Z,86.52
2023-02-19T06:13:25.439Z,86.56
2023-02-19T06:14:25.499Z,86.66
2023-02-19T06:15:25.410Z,86.90
2023-02-19T06:16:25.477Z,87.06
2023-02-19T06:17:25.358Z,87.13
2023-02-19T06:18:25.358Z,87.25
2023-02-19T06:19:25.366Z,87.46
2023-02-19T06:20:26.346Z,87.41
2023-02-19T06:21:25.408Z,87.39
2023-02-19T06:22:25.312Z,87.44
2023-02-19T06:23:25.301Z,87.53
2023-02-19T06:24:25.333Z,87.56
2023-02-19T06:25:25.302Z,87.62
2023-02-19T06:26:25.311Z,87.51
2023-02-19T06:27:25.308Z,87.44
2023-02-19T06:28:25.260Z,87.41
2023-02-19T06:29:25.264Z,87.29
2023-02-19T06:30:25.332Z,87.32
2023-02-19T06:31:25.365Z,87.32
2023-02-19T06:32:25.288Z,87.35
2023-02-19T06:33:25.210Z,87.36
2023-02-19T06:34:25.230Z,87.42
2023-02-19T06:35:25.181Z,87.40
2023-02-19T06:36:25.239Z,87.42
2023-02-19T06:37:25.204Z,87.44
2023-02-19T06:38:25.227Z,87.42
2023-02-19T06:39:25.146Z,87.40
2023-02-19T06:40:25.146Z,87.36
2023-02-19T06:41:25.276Z,87.26
2023-02-19T06:42:25.126Z,87.24
2023-02-19T06:43:25.144Z,87.06
2023-02-19T06:44:25.108Z,86.76
2023-02-19T06:45:25.111Z,86.55
2023-02-19T06:46:25.094Z,86.34
2023-02-19T06:47:25.539Z,86.43
2023-02-19T06:48:25.077Z,86.17
2023-02-19T06:49:25.045Z,86.10
2023-02-19T06:50:25.046Z,86.09
2023-02-19T06:51:25.131Z,85.80
2023-02-19T06:52:25.049Z,85.69
2023-02-19T06:53:25.125Z,85.59
2023-02-19T06:54:25.013Z,85.63
2023-02-19T06:55:25.043Z,85.13
2023-02-19T06:56:25.028Z,84.77
2023-02-19T06:57:24.995Z,84.53
2023-02-19T06:58:25.002Z,84.04
2023-02-19T06:59:24.964Z,83.90
2023-02-19T07:00:24.942Z,83.18
2023-02-19T07:01:24.969Z,82.94
2023-02-19T07:02:24.925Z,82.81
2023-02-19T07:03:24.922Z,82.78
2023-02-19T07:04:25.064Z,82.78
2023-02-19T07:05:24.972Z,82.83
2023-02-19T07:06:24.888Z,82.80
2023-02-19T07:07:24.918Z,82.81
2023-02-19T07:08:24.892Z,82.63
2023-02-19T07:09:24.876Z,82.33
2023-02-19T07:10:24.826Z,82.16
2023-02-19T07:11:24.908Z,82.16
2023-02-19T07:12:24.833Z,81.88
2023-02-19T07:13:24.966Z,81.69
2023-02-19T07:14:24.882Z,81.13
2023-02-19T07:15:24.805Z,80.95
2023-02-19T07:16:24.851Z,80.83
2023-02-19T07:17:24.763Z,81.14
2023-02-19T07:18:24.874Z,81.34
2023-02-19T07:19:24.839Z,81.25
2023-02-19T07:20:24.770Z,80.58
2023-02-19T07:21:24.744Z,80.30
2023-02-19T07:22:24.720Z,80.50
2023-02-19T07:23:24.700Z,80.68
2023-02-19T07:24:24.767Z,80.53
2023-02-19T07:25:24.714Z,80.16
2023-02-19T07:26:24.688Z,80.29
2023-02-19T07:27:24.770Z,79.77
2023-02-19T07:28:24.656Z,79.59
2023-02-19T07:29:24.782Z,79.72
2023-02-19T07:30:24.683Z,80.04
2023-02-19T07:31:24.874Z,80.13
2023-02-19T07:32:24.716Z,80.55
2023-02-19T07:33:24.631Z,80.61
2023-02-19T07:34:24.636Z,81.16
2023-02-19T07:35:24.621Z,81.18
2023-02-19T07:36:24.601Z,81.58
2023-02-19T07:37:24.606Z,81.92
2023-02-19T07:38:24.588Z,82.21
2023-02-19T07:39:24.568Z,81.40
2023-02-19T07:40:24.557Z,82.19
2023-02-19T07:41:24.549Z,82.69
2023-02-19T07:42:24.535Z,83.37
2023-02-19T07:43:24.532Z,83.78
2023-02-19T07:44:24.522Z,84.24
2023-02-19T07:45:24.671Z,84.55
2023-02-19T07:46:24.494Z,84.57
2023-02-19T07:47:24.490Z,84.16
2023-02-19T07:48:24.473Z,84.09
2023-02-19T07:49:24.471Z,84.02
2023-02-19T07:50:24.469Z,83.19
2023-02-19T07:51:24.469Z,82.50
2023-02-19T07:52:24.439Z,82.55
2023-02-19T07:53:24.493Z,82.34
2023-02-19T07:54:24.430Z,82.61
2023-02-19T07:55:24.432Z,82.46
2023-02-19T07:56:24.410Z,82.12
2023-02-19T07:57:24.416Z,81.51
2023-02-19T07:58:24.562Z,81.13
2023-02-19T07:59:24.402Z,81.41
2023-02-19T08:00:24.390Z,81.15
2023-02-19T08:01:24.376Z,81.25
2023-02-19T08:02:24.369Z,81.27
2023-02-19T08:03:24.526Z,80.73
2023-02-19T08:04:24.354Z,80.69
2023-02-19T08:05:24.321Z,80.49
2023-02-19T08:06:24.336Z,80.20
2023-02-19T08:07:24.319Z,80.15
2023-02-19T08:08:24.302Z,79.93
2023-02-19T08:09:24.253Z,80.23
2023-02-19T08:10:24.423Z,80.26
2023-02-19T08:11:24.290Z,80.38
2023-02-19T08:12:24.243Z,80.17
2023-02-19T08:13:24.239Z,80.32
2023-02-19T08:14:24.291Z,79.87
2023-02-19T08:15:24.230Z,79.13
2023-02-19T08:16:40.836Z,79.08
2023-02-19T08:17:24.257Z,78.13
2023-02-19T08:18:24.196Z,78.00
2023-02-19T08:19:24.164Z,78.21
2023-02-19T08:20:24.181Z,77.69
2023-02-19T08:21:24.165Z,77.75
2023-02-19T08:22:24.130Z,77.87
2023-02-19T08:23:24.125Z,77.90
2023-02-19T08:24:24.127Z,78.25
2023-02-19T08:25:24.096Z,78.32
2023-02-19T08:26:24.118Z,77.83
2023-02-19T08:27:24.077Z,77.94
2023-02-19T08:28:24.091Z,77.80
2023-02-19T08:29:24.083Z,76.41
2023-02-19T08:30:24.227Z,75.67
2023-02-19T08:31:24.099Z,75.33
2023-02-19T08:32:24.053Z,75.50
2023-02-19T08:33:24.065Z,75.67
2023-02-19T08:34:24.186Z,75.50
2023-02-19T08:35:24.018Z,75.44
2023-02-19T08:36:23.992Z,75.23
2023-02-19T08:37:24.034Z,75.18
2023-02-19T08:38:24.002Z,74.33
2023-02-19T08:39:23.975Z,73.92
2023-02-19T08:40:24.074Z,73.98
2023-02-19T08:41:23.945Z,74.14
2023-02-19T08:42:23.965Z,73.98
2023-02-19T08:43:23.941Z,74.03
2023-02-19T08:44:23.926Z,74.36
2023-02-19T08:45:23.915Z,74.75
2023-02-19T08:46:23.931Z,74.74
2023-02-19T08:47:23.910Z,74.63
2023-02-19T08:48:23.926Z,74.95
2023-02-19T08:49:24.006Z,74.97
2023-02-19T08:50:23.915Z,75.10
2023-02-19T08:51:23.853Z,75.31
2023-02-19T08:52:23.863Z,75.33
2023-02-19T08:53:23.826Z,75.60
2023-02-19T08:54:23.902Z,75.87
2023-02-19T08:55:23.802Z,75.76
2023-02-19T08:56:23.836Z,75.86
2023-02-19T08:57:23.789Z,76.04
2023-02-19T08:58:23.808Z,76.30
2023-02-19T08:59:23.776Z,76.53
2023-02-19T09:00:23.811Z,76.31
2023-02-19T09:01:23.918Z,76.67
2023-02-19T09:02:23.741Z,76.95
2023-02-19T09:03:23.717Z,76.69
2023-02-19T09:04:23.750Z,76.79
2023-02-19T09:05:23.718Z,76.63
2023-02-19T09:06:23.701Z,76.80
2023-02-19T09:07:23.941Z,76.43
2023-02-19T09:08:23.672Z,76.23
2023-02-19T09:09:23.666Z,76.17
2023-02-19T09:10:23.709Z,76.29
2023-02-19T09:11:23.659Z,76.28
2023-02-19T09:12:23.637Z,75.80
2023-02-19T09:13:23.817Z,75.45
2023-02-19T09:14:23.660Z,75.42
2023-02-19T09:15:23.590Z,74.70
2023-02-19T09:16:23.613Z,74.76
2023-02-19T09:17:23.577Z,74.33
2023-02-19T09:18:23.610Z,74.20
2023-02-19T09:19:23.557Z,74.01
2023-02-19T09:20:23.560Z,74.13
2023-02-19T09:21:23.551Z,73.78
2023-02-19T09:22:23.607Z,73.68
2023-02-19T09:23:23.561Z,74.14
2023-02-19T09:24:23.517Z,74.37
2023-02-19T09:25:23.531Z,74.71
2023-02-19T09:26:23.501Z,75.03
2023-02-19T09:27:23.504Z,75.51
2023-02-19T09:28:23.523Z,75.55
2023-02-19T09:29:23.469Z,75.61
2023-02-19T09:30:23.600Z,75.86
2023-02-19T09:31:23.600Z,75.97
2023-02-19T09:32:23.446Z,76.02
2023-02-19T09:33:23.455Z,76.16
2023-02-19T09:34:23.443Z,76.35
2023-02-19T09:35:23.423Z,76.50
2023-02-19T09:36:23.420Z,76.64
2023-02-19T09:37:23.378Z,77.16
2023-02-19T09:38:23.384Z,77.36
2023-02-19T09:39:23.434Z,77.40
2023-02-19T09:40:23.394Z,77.31
2023-02-19T09:41:23.404Z,77.95
2023-02-19T09:42:23.399Z,78.44
2023-02-19T09:43:23.324Z,78.95
2023-02-19T09:44:23.323Z,78.94
2023-02-19T09:45:23.399Z,79.07
2023-02-19T09:46:23.380Z,79.12
2023-02-19T09:47:23.290Z,79.15
2023-02-19T09:48:23.282Z,79.20
2023-02-19T09:49:25.125Z,78.96
2023-02-19T09:50:23.286Z,79.04
2023-02-19T09:51:23.247Z,78.99
2023-02-19T09:52:23.264Z,78.94
2023-02-19T09:53:23.224Z,78.88
2023-02-19T09:54:23.252Z,78.70
2023-02-19T09:55:23.220Z,78.49
2023-02-19T09:56:23.218Z,78.31
2023-02-19T09:57:23.199Z,78.32
2023-02-19T09:58:23.179Z,78.39
2023-02-19T09:59:23.217Z,77.84
2023-02-19T10:00:23.216Z,77.21
2023-02-19T10:01:23.148Z,77.09
2023-02-19T10:02:23.138Z,76.69
2023-02-19T10:03:23.148Z,76.06
2023-02-19T10:04:23.113Z,75.12
2023-02-19T10:05:23.148Z,74.76
2023-02-19T10:06:23.148Z,74.82
2023-02-19T10:07:23.090Z,74.23
2023-02-19T10:08:23.114Z,74.29
2023-02-19T10:09:23.070Z,74.06
2023-02-19T10:10:23.086Z,74.02
2023-02-19T10:11:23.050Z,74.37
2023-02-19T10:12:23.085Z,74.36
2023-02-19T10:13:23.056Z,74.20
2023-02-19T10:14:23.035Z,74.05
2023-02-19T10:15:23.015Z,73.77
2023-02-19T10:16:23.022Z,73.77
2023-02-19T10:17:23.026Z,73.56
2023-02-19T10:18:23.038Z,73.57
2023-02-19T10:19:23.165Z,73.92
2023-02-19T10:20:22.956Z,74.22
2023-02-19T10:21:23.093Z,74.21
2023-02-19T10:22:22.959Z,73.68
2023-02-19T10:23:22.966Z,73.72
2023-02-19T10:24:22.946Z,73.84
2023-02-19T10:25:22.922Z,73.87
2023-02-19T10:26:22.947Z,73.96
2023-02-19T10:27:22.892Z,74.07
2023-02-19T10:28:22.892Z,74.63
2023-02-19T10:29:22.922Z,74.61
2023-02-19T10:30:22.961Z,75.04
2023-02-19T10:31:22.996Z,75.89
2023-02-19T10:32:22.835Z,76.38
2023-02-19T10:33:22.824Z,76.99
2023-02-19T10:34:22.826Z,77.15
2023-02-19T10:35:22.864Z,77.41
2023-02-19T10:36:22.808Z,77.44
2023-02-19T10:37:22.799Z,78.22
2023-02-19T10:38:22.781Z,78.82
2023-02-19T10:39:22.794Z,79.27
2023-02-19T10:40:22.806Z,79.70
2023-02-19T10:41:22.850Z,80.12
2023-02-19T10:42:22.763Z,80.34
2023-02-19T10:43:22.718Z,80.29
2023-02-19T10:44:22.826Z,80.46
2023-02-19T10:45:22.740Z,80.17
2023-02-19T10:46:22.719Z,79.05
2023-02-19T10:47:22.700Z,78.24
2023-02-19T10:48:22.770Z,78.04
2023-02-19T10:49:22.722Z,78.52
2023-02-19T10:50:22.685Z,78.33
2023-02-19T10:51:22.640Z,78.80
2023-02-19T10:52:22.655Z,79.24
2023-02-19T10:53:22.636Z,79.01
2023-02-19T10:54:22.623Z,78.91
2023-02-19T10:55:22.956Z,78.37
2023-02-19T10:56:22.830Z,78.22
2023-02-19T10:57:22.608Z,77.78
2023-02-19T10:58:22.851Z,77.08
2023-02-19T10:59:22.612Z,77.10
2023-02-19T11:00:22.561Z,76.35
2023-02-19T11:01:22.731Z,76.64
2023-02-19T11:02:22.542Z,76.39
2023-02-19T11:03:22.579Z,75.87
2023-02-19T11:04:22.556Z,75.38
2023-02-19T11:05:22.526Z,75.62
2023-02-19T11:06:22.547Z,75.33
2023-02-19T11:07:22.480Z,74.92
2023-02-19T11:08:22.557Z,74.75
2023-02-19T11:09:22.480Z,75.01
2023-02-19T11:10:22.499Z,74.67
2023-02-19T11:11:22.512Z,74.45
2023-02-19T11:12:22.448Z,74.05
2023-02-19T11:13:22.553Z,73.26
2023-02-19T11:14:22.440Z,73.20
2023-02-19T11:15:22.408Z,72.98
2023-02-19T11:16:22.417Z,72.41
2023-02-19T11:17:22.383Z,72.18
2023-02-19T11:18:22.378Z,71.92
2023-02-19T11:19:22.554Z,72.28
2023-02-19T11:20:22.436Z,71.67
2023-02-19T11:21:22.349Z,72.13
2023-02-19T11:22:22.351Z,72.34
2023-02-19T11:23:22.324Z,72.31
2023-02-19T11:24:22.330Z,72.59
2023-02-19T11:25:22.319Z,72.87
2023-02-19T11:26:22.304Z,71.70
2023-02-19T11:27:22.302Z,71.45
2023-02-19T11:28:22.300Z,71.57
2023-02-19T11:29:22.312Z,71.83
2023-02-19T11:30:22.376Z,71.79
2023-02-19T11:31:22.416Z,72.18
2023-02-19T11:32:22.374Z,71.86
2023-02-19T11:33:22.311Z,72.14
2023-02-19T11:34:22.251Z,71.97
2023-02-19T11:35:22.241Z,71.98
2023-02-19T11:36:22.197Z,72.00
2023-02-19T11:37:22.277Z,72.14
2023-02-19T11:38:22.248Z,71.64
2023-02-19T11:39:22.182Z,71.68
2023-02-19T11:40:22.160Z,71.76
2023-02-19T11:41:22.191Z,71.15
2023-02-19T11:42:22.153Z,70.74
2023-02-19T11:43:22.157Z,71.39
2023-02-19T11:44:22.113Z,70.82
2023-02-19T11:45:22.143Z,71.24
2023-02-19T11:46:22.147Z,71.79
2023-02-19T11:47:22.082Z,71.60
2023-02-19T11:48:22.102Z,71.64
2023-02-19T11:49:22.079Z,71.96
2023-02-19T11:50:22.059Z,72.30
2023-02-19T11:51:22.126Z,71.77
2023-02-19T11:52:22.060Z,71.93
2023-02-19T11:53:22.086Z,72.68
2023-02-19T11:54:22.071Z,72.63
2023-02-19T11:55:22.041Z,72.70
2023-02-19T11:56:22.003Z,73.06
2023-02-19T11:57:22.039Z,72.93
2023-02-19T11:58:22.005Z,73.04
2023-02-19T11:59:21.993Z,72.09
2023-02-19T12:00:22.013Z,72.09
2023-02-19T12:01:21.985Z,72.00
2023-02-19T12:02:21.939Z,72.04
2023-02-19T12:03:21.966Z,70.45
2023-02-19T12:04:21.977Z,70.50
2023-02-19T12:05:22.019Z,70.62
2023-02-19T12:06:21.891Z,70.72
2023-02-19T12:07:23.109Z,70.45
2023-02-19T12:08:21.878Z,69.41
2023-02-19T12:09:21.861Z,69.05
2023-02-19T12:10:21.868Z,68.03
2023-02-19T12:11:21.849Z,68.57
2023-02-19T12:12:21.872Z,68.31
2023-02-19T12:13:21.876Z,68.48
2023-02-19T12:14:21.865Z,68.46
2023-02-19T12:15:21.799Z,68.21
2023-02-19T12:16:21.867Z,68.10
2023-02-19T12:17:21.788Z,67.99
2023-02-19T12:18:21.773Z,68.08
2023-02-19T12:19:21.836Z,68.30
2023-02-19T12:20:21.748Z,66.61
2023-02-19T12:21:21.761Z,66.76
2023-02-19T12:22:21.747Z,66.82
2023-02-19T12:23:21.742Z,66.85
2023-02-19T12:24:21.706Z,66.82
2023-02-19T12:25:21.707Z,66.68
2023-02-19T12:26:21.719Z,66.58
2023-02-19T12:27:21.697Z,65.86
2023-02-19T12:28:21.675Z,65.43
2023-02-19T12:29:21.686Z,65.50
2023-02-19T12:30:21.693Z,65.39
2023-02-19T12:31:21.747Z,65.16
2023-02-19T12:32:21.657Z,65.69
2023-02-19T12:33:21.651Z,65.85
2023-02-19T12:34:21.658Z,65.99
2023-02-19T12:35:21.598Z,65.68
2023-02-19T12:36:21.688Z,65.36
2023-02-19T12:37:21.577Z,64.94
2023-02-19T12:38:21.586Z,64.71
2023-02-19T12:39:21.558Z,64.88
2023-02-19T12:40:21.573Z,65.54
2023-02-19T12:41:21.582Z,65.42
2023-02-19T12:42:21.550Z,65.36
2023-02-19T12:43:21.521Z,64.96
2023-02-19T12:44:21.520Z,64.79
2023-02-19T12:45:21.511Z,64.69
2023-02-19T12:46:21.664Z,64.15
2023-02-19T12:47:21.480Z,64.24
2023-02-19T12:48:21.474Z,64.04
2023-02-19T12:49:21.482Z,63.84
2023-02-19T12:50:21.565Z,63.99
2023-02-19T12:51:21.447Z,63.94
2023-02-19T12:52:21.458Z,64.13
2023-02-19T12:53:21.416Z,64.40
2023-02-19T12:54:21.408Z,64.73